createdAt,value
2018-08-31T00:02:23.308Z,1.97
2018-08-31T00:05:03.006Z,1.97
2018-08-31T00:09:13.221Z,1.63
2018-08-31T00:11:50.046Z,1.73
2018-08-31T00:14:18.616Z,1.53
2018-08-31T00:16:47.071Z,1.80
2018-08-31T00:19:16.488Z,2.20
2018-08-31T00:21:44.969Z,1.83
2018-08-31T00:24:24.597Z,1.80
2018-08-31T00:27:05.048Z,1.50
2018-08-31T00:29:52.375Z,2.03
2018-08-31T00:33:05.724Z,2.03
2018-08-31T00:35:45.893Z,2.10
2018-08-31T00:40:30.156Z,1.90
2018-08-31T00:45:26.569Z,1.60
2018-08-31T00:47:55.748Z,2.20
2018-08-31T00:50:24.270Z,2.20
2018-08-31T00:52:53.104Z,2.50
2018-08-31T00:55:21.924Z,1.95
2018-08-31T00:57:51.461Z,1.73
2018-08-31T01:00:20.403Z,2.03
2018-08-31T01:02:49.431Z,2.23
2018-08-31T01:05:18.576Z,1.80
2018-08-31T01:07:48.427Z,1.90
2018-08-31T01:10:19.040Z,1.90
2018-08-31T01:12:47.744Z,2.00
2018-08-31T01:15:16.975Z,2.17
2018-08-31T01:17:45.602Z,1.83
2018-08-31T01:20:14.869Z,2.07
2018-08-31T01:22:43.655Z,1.87
2018-08-31T01:25:13.530Z,2.33
2018-08-31T01:27:42.387Z,2.10
2018-08-31T01:30:10.992Z,1.80
2018-08-31T01:32:39.878Z,2.50
2018-08-31T01:35:09.405Z,1.83
2018-08-31T01:37:37.962Z,1.97
2018-08-31T01:40:07.317Z,2.00
2018-08-31T01:42:36.200Z,2.10
2018-08-31T01:45:04.910Z,2.00
2018-08-31T01:47:34.407Z,1.97
2018-08-31T01:50:03.859Z,2.10
2018-08-31T01:52:32.396Z,2.37
2018-08-31T01:55:00.986Z,2.33
2018-08-31T01:57:29.502Z,2.23
2018-08-31T01:59:58.968Z,2.00
2018-08-31T02:02:27.765Z,2.20
2018-08-31T02:04:56.373Z,1.70
2018-08-31T02:07:24.855Z,2.03
2018-08-31T02:09:53.907Z,2.63
2018-08-31T02:12:22.816Z,2.63
2018-08-31T02:14:51.465Z,2.20
2018-08-31T02:17:20.711Z,2.30
2018-08-31T02:19:49.499Z,2.27
2018-08-31T02:22:18.110Z,2.37
2018-08-31T02:24:46.676Z,2.30
2018-08-31T02:27:15.295Z,2.27
2018-08-31T02:29:44.452Z,1.93
2018-08-31T02:32:13.117Z,2.00
2018-08-31T02:34:41.612Z,2.60
2018-08-31T02:37:10.776Z,3.23
2018-08-31T02:39:39.381Z,2.60
2018-08-31T02:42:08.294Z,2.43
2018-08-31T02:44:36.867Z,2.23
2018-08-31T02:47:05.726Z,2.90
2018-08-31T02:49:34.178Z,2.33
2018-08-31T02:52:02.920Z,1.80
2018-08-31T02:54:31.831Z,2.30
2018-08-31T02:57:00.688Z,2.37
2018-08-31T02:59:29.283Z,2.10
2018-08-31T03:01:57.804Z,2.57
2018-08-31T03:04:26.229Z,2.07
2018-08-31T03:06:55.459Z,2.27
2018-08-31T03:09:23.981Z,1.97
2018-08-31T03:11:53.161Z,2.23
2018-08-31T03:14:21.805Z,2.57
2018-08-31T03:16:50.371Z,2.40
2018-08-31T03:19:19.099Z,2.60
2018-08-31T03:21:47.676Z,2.43
2018-08-31T03:24:16.280Z,2.00
2018-08-31T03:26:45.056Z,2.60
2018-08-31T03:29:13.576Z,2.70
2018-08-31T03:31:42.237Z,2.07
2018-08-31T03:34:10.688Z,2.40
2018-08-31T03:36:39.832Z,2.33
2018-08-31T03:39:10.029Z,3.27
2018-08-31T03:41:38.855Z,2.80
2018-08-31T03:44:07.773Z,2.47
2018-08-31T03:46:36.455Z,2.70
2018-08-31T03:49:04.991Z,2.63
2018-08-31T03:51:40.297Z,2.30
2018-08-31T03:54:09.064Z,2.87
2018-08-31T03:56:38.721Z,3.00
2018-08-31T03:59:07.706Z,2.77
2018-08-31T04:01:36.582Z,2.47
2018-08-31T04:04:05.732Z,3.33
2018-08-31T04:06:34.820Z,3.43
2018-08-31T04:09:03.552Z,3.47
2018-08-31T04:11:33.186Z,6.07
2018-08-31T04:14:02.185Z,3.33
2018-08-31T04:16:30.819Z,3.80
2018-08-31T04:19:04.872Z,8.37
2018-08-31T04:21:33.510Z,3.60
2018-08-31T04:24:02.640Z,2.57
2018-08-31T04:26:31.075Z,2.83
2018-08-31T04:28:59.669Z,5.70
2018-08-31T04:31:29.498Z,3.03
2018-08-31T04:33:58.118Z,4.03
2018-08-31T04:36:27.473Z,2.93
2018-08-31T04:38:56.937Z,3.00
2018-08-31T04:41:25.472Z,4.53
2018-08-31T04:43:54.341Z,4.73
2018-08-31T04:46:23.583Z,2.70
2018-08-31T04:48:52.253Z,3.70
2018-08-31T04:51:21.616Z,3.10
2018-08-31T04:53:55.708Z,3.40
2018-08-31T04:56:24.586Z,3.40
2018-08-31T04:58:55.115Z,3.47
2018-08-31T05:01:24.949Z,3.00
2018-08-31T05:03:53.867Z,3.33
2018-08-31T05:06:22.910Z,3.10
2018-08-31T05:08:51.467Z,3.10
2018-08-31T05:11:21.541Z,3.23
2018-08-31T05:13:51.417Z,2.90
2018-08-31T05:16:21.049Z,3.13
2018-08-31T05:18:49.848Z,3.03
2018-08-31T05:21:19.141Z,2.97
2018-08-31T05:23:47.989Z,2.77
2018-08-31T05:26:16.709Z,3.10
2018-08-31T05:28:45.525Z,2.73
2018-08-31T05:31:14.303Z,3.40
2018-08-31T05:33:43.676Z,3.73
2018-08-31T05:36:13.327Z,2.83
2018-08-31T05:38:42.100Z,2.87
2018-08-31T05:41:10.863Z,3.30
2018-08-31T05:43:39.413Z,2.70
2018-08-31T05:46:08.308Z,2.90
2018-08-31T05:48:37.120Z,3.50
2018-08-31T05:51:05.997Z,3.40
2018-08-31T05:53:34.952Z,3.27
2018-08-31T05:56:03.849Z,3.40
2018-08-31T05:58:32.662Z,3.40
2018-08-31T06:01:01.388Z,3.47
2018-08-31T06:03:30.914Z,3.93
2018-08-31T06:06:00.030Z,3.83
2018-08-31T06:08:29.588Z,3.50
2018-08-31T06:10:58.546Z,3.33
2018-08-31T06:13:27.480Z,3.63
2018-08-31T06:15:56.391Z,3.17
2018-08-31T06:18:25.108Z,3.67
2018-08-31T06:20:54.382Z,3.87
2018-08-31T06:23:23.037Z,3.63
2018-08-31T06:25:51.689Z,3.60
2018-08-31T06:28:26.628Z,3.93
2018-08-31T06:30:55.238Z,4.13
2018-08-31T06:33:24.105Z,4.27
2018-08-31T06:35:52.822Z,4.00
2018-08-31T06:38:22.502Z,4.23
2018-08-31T06:40:51.131Z,4.73
2018-08-31T06:43:26.440Z,4.60
2018-08-31T06:45:55.770Z,5.40
2018-08-31T06:48:24.348Z,5.23
2018-08-31T06:50:53.577Z,5.05
2018-08-31T06:53:22.457Z,5.87
2018-08-31T06:55:57.273Z,5.27
2018-08-31T06:58:26.523Z,5.97
2018-08-31T07:00:55.180Z,6.97
2018-08-31T07:03:24.802Z,7.10
2018-08-31T07:05:53.588Z,7.17
2018-08-31T07:08:22.583Z,7.30
2018-08-31T07:10:51.216Z,7.30
2018-08-31T07:13:20.707Z,8.63
2018-08-31T07:15:50.631Z,12.43
2018-08-31T07:18:19.605Z,7.57
2018-08-31T07:20:48.656Z,8.27
2018-08-31T07:23:18.119Z,6.90
2018-08-31T07:25:46.790Z,7.50
2018-08-31T07:28:15.516Z,6.90
2018-08-31T07:30:44.134Z,8.10
2018-08-31T07:33:12.935Z,7.53
2018-08-31T07:35:41.921Z,6.83
2018-08-31T07:38:10.712Z,8.53
2018-08-31T07:40:39.396Z,7.33
2018-08-31T07:43:08.249Z,7.40
2018-08-31T07:45:36.884Z,6.83
2018-08-31T07:48:05.654Z,6.17
2018-08-31T07:50:35.336Z,5.20
2018-08-31T07:53:04.362Z,6.20
2018-08-31T07:55:33.354Z,6.57
2018-08-31T07:58:02.988Z,8.57
2018-08-31T08:00:31.901Z,7.47
2018-08-31T08:03:00.757Z,7.63
2018-08-31T08:05:30.515Z,6.20
2018-08-31T08:07:59.259Z,6.50
2018-08-31T08:10:27.887Z,6.57
2018-08-31T08:12:56.547Z,6.27
2018-08-31T08:15:25.484Z,6.40
2018-08-31T08:17:54.323Z,5.77
2018-08-31T08:20:23.245Z,6.12
2018-08-31T08:22:52.056Z,6.17
2018-08-31T08:25:21.268Z,6.45
2018-08-31T08:27:49.856Z,6.20
2018-08-31T08:30:18.424Z,6.07
2018-08-31T08:32:47.779Z,5.87
2018-08-31T08:35:16.710Z,5.63
2018-08-31T08:37:45.381Z,5.03
2018-08-31T08:40:14.016Z,5.80
2018-08-31T08:42:43.051Z,5.67
2018-08-31T08:45:12.258Z,4.84
2018-08-31T08:47:40.972Z,4.30
2018-08-31T08:50:10.174Z,4.45
2018-08-31T08:52:39.138Z,4.62
2018-08-31T08:55:07.879Z,3.90
2018-08-31T08:57:36.570Z,4.00
2018-08-31T09:00:05.513Z,4.47
2018-08-31T09:02:34.329Z,3.70
2018-08-31T09:05:02.953Z,3.70
2018-08-31T09:07:32.234Z,3.00
2018-08-31T09:10:00.837Z,3.25
2018-08-31T09:12:29.710Z,3.70
2018-08-31T09:14:58.274Z,3.30
2018-08-31T09:17:26.869Z,3.60
2018-08-31T09:19:56.592Z,3.80
2018-08-31T09:22:25.663Z,3.60
2018-08-31T09:24:54.499Z,3.20
2018-08-31T09:27:23.375Z,3.37
2018-08-31T09:29:52.273Z,2.85
2018-08-31T09:32:26.123Z,2.30
2018-08-31T09:34:55.154Z,2.72
2018-08-31T09:37:23.872Z,2.77
2018-08-31T09:39:52.921Z,3.52
2018-08-31T09:42:22.301Z,1.82
2018-08-31T09:44:51.811Z,2.12
2018-08-31T09:47:20.561Z,2.20
2018-08-31T09:49:49.309Z,2.60
2018-08-31T09:52:18.737Z,2.83
2018-08-31T09:54:47.998Z,2.87
2018-08-31T09:57:17.807Z,2.47
2018-08-31T09:59:47.525Z,2.60
2018-08-31T10:02:21.696Z,2.80
2018-08-31T10:04:50.317Z,2.65
2018-08-31T10:07:19.720Z,2.40
2018-08-31T10:09:48.607Z,1.70
2018-08-31T10:12:17.206Z,1.90
2018-08-31T10:14:45.977Z,2.30
2018-08-31T10:17:14.923Z,1.77
2018-08-31T10:19:43.598Z,1.98
2018-08-31T10:22:12.330Z,1.70
2018-08-31T10:24:41.193Z,2.12
2018-08-31T10:27:11.366Z,1.92
2018-08-31T10:29:40.738Z,2.52
2018-08-31T10:32:09.494Z,2.00
2018-08-31T10:34:38.385Z,1.80
2018-08-31T10:37:07.543Z,1.77
2018-08-31T10:39:36.325Z,1.70
2018-08-31T10:42:05.534Z,2.25
2018-08-31T10:44:34.187Z,1.87
2018-08-31T10:47:03.294Z,1.70
2018-08-31T10:49:32.216Z,1.22
2018-08-31T10:52:00.853Z,1.55
2018-08-31T10:54:29.691Z,1.80
2018-08-31T10:56:58.778Z,1.30
2018-08-31T10:59:27.617Z,1.70
2018-08-31T11:01:56.370Z,1.37
2018-08-31T11:04:25.679Z,1.45
2018-08-31T11:06:55.123Z,1.20
2018-08-31T11:09:23.748Z,1.20
2018-08-31T11:11:52.290Z,2.22
2018-08-31T11:14:20.973Z,1.47
2018-08-31T11:16:50.591Z,1.22
2018-08-31T11:19:19.340Z,1.60
2018-08-31T11:21:48.430Z,1.30
2018-08-31T11:24:18.108Z,1.20
2018-08-31T11:26:46.920Z,1.27
2018-08-31T11:29:16.339Z,1.27
2018-08-31T11:31:45.214Z,1.30
2018-08-31T11:34:13.969Z,1.07
2018-08-31T11:36:42.932Z,1.40
2018-08-31T11:39:12.620Z,1.15
2018-08-31T11:41:41.388Z,1.52
2018-08-31T11:44:10.535Z,1.60
2018-08-31T11:46:39.321Z,1.17
2018-08-31T11:49:08.268Z,1.85
2018-08-31T11:51:36.898Z,1.30
2018-08-31T11:54:05.786Z,1.07
2018-08-31T11:56:34.593Z,1.12
2018-08-31T11:59:03.475Z,1.52
2018-08-31T12:01:32.357Z,1.25
2018-08-31T12:04:01.118Z,1.15
2018-08-31T12:06:30.585Z,1.25
2018-08-31T12:08:59.122Z,1.00
2018-08-31T12:11:27.978Z,1.07
2018-08-31T12:13:56.757Z,1.45
2018-08-31T12:16:25.577Z,1.15
2018-08-31T12:18:54.278Z,1.22
2018-08-31T12:21:22.980Z,1.35
2018-08-31T12:23:51.669Z,1.20
2018-08-31T12:26:20.565Z,1.22
2018-08-31T12:28:49.864Z,1.40
2018-08-31T12:31:18.545Z,1.10
2018-08-31T12:33:47.365Z,1.00
2018-08-31T12:36:15.929Z,1.30
2018-08-31T12:38:44.819Z,0.82
2018-08-31T12:41:13.831Z,1.20
2018-08-31T12:43:43.050Z,0.90
2018-08-31T12:46:12.569Z,1.50
2018-08-31T12:48:41.414Z,1.15
2018-08-31T12:51:11.220Z,1.32
2018-08-31T12:53:40.144Z,1.47
2018-08-31T12:56:08.905Z,1.45
2018-08-31T12:58:37.594Z,1.40
2018-08-31T13:01:07.138Z,1.50
2018-08-31T13:03:36.585Z,1.30
2018-08-31T13:06:05.635Z,1.10
2018-08-31T13:08:34.752Z,1.10
2018-08-31T13:11:04.038Z,1.30
2018-08-31T13:13:32.888Z,1.07
2018-08-31T13:16:01.623Z,0.98
2018-08-31T13:18:30.546Z,1.10
2018-08-31T13:20:59.292Z,1.00
2018-08-31T13:23:28.043Z,1.07
2018-08-31T13:25:56.763Z,0.90
2018-08-31T13:28:25.373Z,1.00
2018-08-31T13:30:54.129Z,1.20
2018-08-31T13:33:22.789Z,1.05
2018-08-31T13:35:51.766Z,0.88
2018-08-31T13:38:20.523Z,0.90
2018-08-31T13:40:48.957Z,0.80
2018-08-31T13:43:17.710Z,0.85
2018-08-31T13:45:47.051Z,1.02
2018-08-31T13:48:16.704Z,1.17
2018-08-31T13:50:46.161Z,1.12
2018-08-31T13:53:15.627Z,0.60
2018-08-31T13:55:44.152Z,0.70
2018-08-31T13:58:13.694Z,0.75
2018-08-31T14:00:42.350Z,0.90
2018-08-31T14:03:11.033Z,2.85
2018-08-31T14:05:39.617Z,1.17
2018-08-31T14:08:08.542Z,1.22
2018-08-31T14:10:37.172Z,0.88
2018-08-31T14:13:06.143Z,0.93
2018-08-31T14:15:34.666Z,0.90
2018-08-31T14:18:03.384Z,1.15
2018-08-31T14:20:32.156Z,1.00
2018-08-31T14:23:00.820Z,1.00
2018-08-31T14:25:29.502Z,0.90
2018-08-31T14:27:58.395Z,1.10
2018-08-31T14:30:27.133Z,0.90
2018-08-31T14:32:56.030Z,1.27
2018-08-31T14:35:25.699Z,26.90
2018-08-31T14:37:54.714Z,1.37
2018-08-31T14:40:24.338Z,6.57
2018-08-31T14:42:53.702Z,6.47
2018-08-31T14:45:22.887Z,1.30
2018-08-31T14:47:51.744Z,1.27
2018-08-31T14:50:20.384Z,1.10
2018-08-31T14:52:55.871Z,1.15
2018-08-31T14:55:26.277Z,1.17
2018-08-31T14:57:55.102Z,1.00
2018-08-31T15:00:23.782Z,1.30
2018-08-31T15:02:52.717Z,1.00
2018-08-31T15:05:21.467Z,0.90
2018-08-31T15:07:50.220Z,0.93
2018-08-31T15:10:19.709Z,0.70
2018-08-31T15:12:48.807Z,1.27
2018-08-31T15:15:17.837Z,0.80
2018-08-31T15:17:46.479Z,1.05
2018-08-31T15:20:16.236Z,1.00
2018-08-31T15:22:44.959Z,0.95
2018-08-31T15:25:14.099Z,0.87
2018-08-31T15:27:43.893Z,0.88
2018-08-31T15:30:12.590Z,0.90
2018-08-31T15:32:41.562Z,1.07
2018-08-31T15:35:10.391Z,1.00
2018-08-31T15:37:39.070Z,1.20
2018-08-31T15:40:07.690Z,1.20
2018-08-31T15:42:36.705Z,1.10
2018-08-31T15:45:06.696Z,1.12
2018-08-31T15:47:35.873Z,1.40
2018-08-31T15:50:04.749Z,1.30
2018-08-31T15:52:34.206Z,1.35
2018-08-31T15:55:02.783Z,1.45
2018-08-31T15:57:32.436Z,1.62
2018-08-31T16:00:01.378Z,1.50
2018-08-31T16:02:30.651Z,1.57
2018-08-31T16:04:59.361Z,1.10
2018-08-31T16:07:28.347Z,1.20
2018-08-31T16:09:57.131Z,1.25
2018-08-31T16:12:26.640Z,1.10
2018-08-31T16:14:55.288Z,1.17
2018-08-31T16:17:24.000Z,1.55
2018-08-31T16:19:52.803Z,1.07
2018-08-31T16:22:21.904Z,1.20
2018-08-31T16:24:50.679Z,1.35
2018-08-31T16:27:19.882Z,1.17
2018-08-31T16:29:48.589Z,1.15
2018-08-31T16:32:17.186Z,1.00
2018-08-31T16:34:45.934Z,0.88
2018-08-31T16:43:01.469Z,1.10
2018-08-31T16:45:30.150Z,1.30
2018-08-31T16:48:05.431Z,1.50
2018-08-31T16:50:33.994Z,1.70
2018-08-31T16:53:03.543Z,1.60
2018-08-31T16:58:03.653Z,0.85
2018-08-31T17:00:32.151Z,0.88
2018-08-31T17:03:01.610Z,1.12
2018-08-31T17:05:30.202Z,1.45
2018-08-31T17:07:58.793Z,1.02
2018-08-31T17:10:27.602Z,1.00
2018-08-31T17:12:56.069Z,0.80
2018-08-31T17:15:25.303Z,1.00
2018-08-31T17:17:54.259Z,1.25
2018-08-31T17:20:22.809Z,1.20
2018-08-31T17:22:52.121Z,0.98
2018-08-31T17:25:20.912Z,1.15
2018-08-31T17:27:55.082Z,1.50
2018-08-31T17:30:24.210Z,1.23
2018-08-31T17:32:58.114Z,1.25
2018-08-31T17:35:32.096Z,1.00
2018-08-31T17:38:02.196Z,1.62
2018-08-31T17:40:31.233Z,1.17
2018-08-31T17:43:01.397Z,1.17
2018-08-31T17:45:30.280Z,1.20
2018-08-31T17:47:59.893Z,1.20
2018-08-31T17:50:28.662Z,1.77
2018-08-31T17:52:57.557Z,2.62
2018-08-31T17:55:26.756Z,1.22
2018-08-31T17:57:55.469Z,1.32
2018-08-31T18:00:24.980Z,1.40
2018-08-31T18:02:54.605Z,1.50
2018-08-31T18:05:23.277Z,0.83
2018-08-31T18:07:52.556Z,1.30
2018-08-31T18:10:21.470Z,1.27
2018-08-31T18:12:50.086Z,1.25
2018-08-31T18:15:19.423Z,1.10
2018-08-31T18:17:48.231Z,1.72
2018-08-31T18:20:17.054Z,1.10
2018-08-31T18:22:45.723Z,1.32
2018-08-31T18:25:14.568Z,1.30
2018-08-31T18:27:44.226Z,2.87
2018-08-31T18:30:13.997Z,0.97
2018-08-31T18:32:42.736Z,1.30
2018-08-31T18:35:11.365Z,1.30
2018-08-31T18:37:40.106Z,1.55
2018-08-31T18:40:08.810Z,1.15
2018-08-31T18:42:37.308Z,0.98
2018-08-31T18:45:07.738Z,1.40
2018-08-31T18:47:36.799Z,2.10
2018-08-31T18:50:05.595Z,1.15
2018-08-31T18:52:35.020Z,1.20
2018-08-31T18:55:04.089Z,1.45
2018-08-31T18:57:32.901Z,1.00
2018-08-31T19:00:02.141Z,1.45
2018-08-31T19:02:30.777Z,1.20
2018-08-31T19:04:59.276Z,1.85
2018-08-31T19:07:28.140Z,2.13
2018-08-31T19:09:57.291Z,1.85
2018-08-31T19:12:26.500Z,1.75
2018-08-31T19:14:54.975Z,2.10
2018-08-31T19:17:23.697Z,2.25
2018-08-31T19:19:52.292Z,1.57
2018-08-31T19:22:21.142Z,2.00
2018-08-31T19:24:49.635Z,2.00
2018-08-31T19:27:18.206Z,1.60
2018-08-31T19:29:47.198Z,2.05
2018-08-31T19:32:15.704Z,2.58
2018-08-31T19:34:44.295Z,1.82
2018-08-31T19:37:12.957Z,2.00
2018-08-31T19:39:42.423Z,1.85
2018-08-31T19:42:11.208Z,1.60
2018-08-31T19:44:40.870Z,1.17
2018-08-31T19:47:09.431Z,1.72
2018-08-31T19:49:38.669Z,1.50
2018-08-31T19:52:07.400Z,1.50
2018-08-31T19:54:35.924Z,1.32
2018-08-31T19:57:04.609Z,1.62
2018-08-31T19:59:33.235Z,1.55
2018-08-31T20:02:02.480Z,1.30
2018-08-31T20:04:31.317Z,1.65
2018-08-31T20:06:59.878Z,1.67
2018-08-31T20:09:28.642Z,1.40
2018-08-31T20:11:57.887Z,1.70
2018-08-31T20:14:26.389Z,1.80
2018-08-31T20:16:55.764Z,1.85
2018-08-31T20:19:24.562Z,1.30
2018-08-31T20:21:53.125Z,1.52
2018-08-31T20:24:21.809Z,1.72
2018-08-31T20:26:50.390Z,1.73
2018-08-31T20:29:18.956Z,1.80
2018-08-31T20:31:47.689Z,1.50
2018-08-31T20:34:16.285Z,1.55
2018-08-31T20:36:45.071Z,1.65
2018-08-31T20:39:13.589Z,1.72
2018-08-31T20:41:42.758Z,1.70
2018-08-31T20:44:11.644Z,1.40
2018-08-31T20:46:40.579Z,1.50
2018-08-31T20:49:09.222Z,1.70
2018-08-31T20:51:38.012Z,2.75
2018-08-31T20:54:06.778Z,3.67
2018-08-31T20:56:35.388Z,1.90
2018-08-31T20:59:03.915Z,1.80
2018-08-31T21:01:33.288Z,1.62
2018-08-31T21:04:01.870Z,2.00
2018-08-31T21:06:30.524Z,1.77
2018-08-31T21:08:59.045Z,1.52
2018-08-31T21:11:27.595Z,1.82
2018-08-31T21:13:56.133Z,1.30
2018-08-31T21:16:24.665Z,1.65
2018-08-31T21:18:53.152Z,1.73
2018-08-31T21:21:22.354Z,1.72
2018-08-31T21:23:51.135Z,1.80
2018-08-31T21:26:19.676Z,1.80
2018-08-31T21:28:49.307Z,1.87
2018-08-31T21:31:17.845Z,1.67
2018-08-31T21:33:53.572Z,1.60
2018-08-31T21:36:22.315Z,1.87
2018-08-31T21:38:50.871Z,1.82
2018-08-31T21:41:19.544Z,1.57
2018-08-31T21:43:48.376Z,2.00
2018-08-31T21:46:17.041Z,5.65
2018-08-31T21:48:46.233Z,2.10
2018-08-31T21:51:15.195Z,1.90
2018-08-31T21:53:43.765Z,1.80
2018-08-31T21:56:12.520Z,2.00
2018-08-31T21:58:41.037Z,1.53
2018-08-31T22:01:15.040Z,1.67
2018-08-31T22:03:43.554Z,1.70
2018-08-31T22:06:12.330Z,1.73
2018-08-31T22:08:40.959Z,1.80
2018-08-31T22:11:09.686Z,1.83
2018-08-31T22:13:38.410Z,1.77
2018-08-31T22:16:07.307Z,2.10
2018-08-31T22:18:36.061Z,1.87
2018-08-31T22:21:04.851Z,2.60
2018-08-31T22:23:33.801Z,2.15
2018-08-31T22:26:03.101Z,1.80
2018-08-31T22:28:32.316Z,2.23
2018-08-31T22:31:01.081Z,2.10
2018-08-31T22:33:29.757Z,2.80
2018-08-31T22:35:58.253Z,2.33
2018-08-31T22:38:28.210Z,2.50
2018-08-31T22:40:56.680Z,2.23
2018-08-31T22:43:31.203Z,2.40
2018-08-31T22:45:59.774Z,2.17
2018-08-31T22:48:28.215Z,2.43
2018-08-31T22:50:56.719Z,2.30
2018-08-31T22:53:25.156Z,2.43
2018-08-31T22:55:54.313Z,2.40
2018-08-31T22:58:22.924Z,2.90
2018-08-31T23:00:51.430Z,2.43
2018-08-31T23:03:20.008Z,2.00
2018-08-31T23:05:48.641Z,2.53
2018-08-31T23:08:17.737Z,3.40
2018-08-31T23:10:46.460Z,2.80
2018-08-31T23:13:15.387Z,2.87
2018-08-31T23:15:43.799Z,3.10
2018-08-31T23:18:12.377Z,2.40
2018-08-31T23:20:40.889Z,2.10
2018-08-31T23:23:14.761Z,2.40
2018-08-31T23:25:48.893Z,2.60
2018-08-31T23:28:18.738Z,2.23
2018-08-31T23:30:47.444Z,2.57
2018-08-31T23:33:16.907Z,2.80
2018-08-31T23:35:45.968Z,2.60
2018-08-31T23:38:15.001Z,2.37
2018-08-31T23:40:43.598Z,2.87
2018-08-31T23:43:12.781Z,2.20
2018-08-31T23:45:41.546Z,2.53
2018-08-31T23:48:10.384Z,2.77
2018-08-31T23:50:38.881Z,2.80
2018-08-31T23:53:07.553Z,2.87
2018-08-31T23:55:36.174Z,3.23
2018-08-31T23:58:11.357Z,2.77
